Time;durP1;ratioP1;P1;durP2;ratioP2;P2;SDS_P1;SDS_P2;PMS_P1;PMS_P2;Temp;Humidity;BMP_temperature;BMP_pressure;BME280_temperature;BME280_humidity;BME280_pressure;Samples;Min_cycle;Max_cycle;Signal;HPM_P1;HPM_P2
2022/12/12 00:01:36;;;;;;;28.27;18.23;;;;;;;-0.01;92.88;99173.58;1476025;88;21735;-80
2022/12/12 00:04:03;;;;;;;26.17;16.83;;;;;;;0.02;93.24;99168.63;1479132;88;21717;-80
2022/12/12 00:06:30;;;;;;;29.00;17.50;;;;;;;0.02;94.13;99165.20;1484687;88;21521;-80
2022/12/12 00:08:56;;;;;;;30.87;17.77;;;;;;;0.01;94.22;99165.68;1483796;87;22148;-79
2022/12/12 00:11:24;;;;;;;29.33;19.07;;;;;;;0.02;94.30;99166.50;1483702;88;22503;-81
2022/12/12 00:13:51;;;;;;;31.43;20.57;;;;;;;0.04;94.40;99172.44;1480419;88;21639;-80
2022/12/12 00:16:18;;;;;;;29.97;18.97;;;;;;;0.01;94.73;99173.96;1472924;88;21640;-80
2022/12/12 00:18:44;;;;;;;31.27;18.67;;;;;;;0.01;94.78;99171.36;1475654;88;21655;-79
2022/12/12 00:21:21;;;;;;;38.77;22.47;;;;;;;0.04;95.36;99175.03;1478884;87;22680;-79
2022/12/12 00:23:48;;;;;;;36.27;22.60;;;;;;;0.05;95.37;99179.28;1479147;88;21665;-80
2022/12/12 00:26:24;;;;;;;32.27;20.70;;;;;;;0.06;95.08;99182.23;1476164;88;21587;-83
2022/12/12 00:28:51;;;;;;;35.93;19.40;;;;;;;0.10;94.96;99183.69;1481315;87;21593;-80
2022/12/12 00:31:18;;;;;;;30.70;19.40;;;;;;;0.12;94.66;99190.45;1477085;88;22328;-82
2022/12/12 00:33:47;;;;;;;29.47;19.10;;;;;;;0.11;93.71;99185.34;1478861;88;21492;-81
2022/12/12 00:36:14;;;;;;;33.30;18.63;;;;;;;0.10;93.80;99189.72;1476546;87;21665;-82
2022/12/12 00:38:40;;;;;;;32.13;19.43;;;;;;;0.07;93.32;99191.24;1475836;88;21456;-82
2022/12/12 00:41:06;;;;;;;32.27;20.07;;;;;;;0.06;93.67;99192.64;1486015;88;21567;-80
2022/12/12 00:43:33;;;;;;;29.40;20.50;;;;;;;0.02;94.24;99194.64;1478083;87;21570;-82
2022/12/12 00:46:00;;;;;;;35.87;21.47;;;;;;;0.02;94.17;99197.72;1474855;88;21323;-81
2022/12/12 00:48:27;;;;;;;34.07;21.77;;;;;;;0.02;95.08;99193.34;1484211;88;21612;-82
2022/12/12 00:50:54;;;;;;;33.93;21.37;;;;;;;0.06;94.90;99188.73;1482093;88;21563;-82
2022/12/12 00:53:21;;;;;;;35.30;21.87;;;;;;;0.10;94.83;99191.50;1485969;88;21663;-80
2022/12/12 00:55:56;;;;;;;32.20;21.60;;;;;;;0.14;94.93;99190.32;1478801;87;22696;-82
2022/12/12 00:58:24;;;;;;;32.50;19.60;;;;;;;0.16;94.75;99200.16;1468857;88;21668;-80
2022/12/12 01:00:51;;;;;;;30.73;21.20;;;;;;;0.18;95.14;99193.08;1470455;88;21599;-80
2022/12/12 01:03:19;;;;;;;35.27;21.07;;;;;;;0.19;94.69;99192.13;1481843;88;21658;-82
2022/12/12 01:05:46;;;;;;;34.97;21.43;;;;;;;0.19;94.23;99194.25;1478713;87;22656;-82
2022/12/12 01:08:12;;;;;;;31.37;19.73;;;;;;;0.22;94.09;99191.89;1482440;88;22514;-81
2022/12/12 01:10:39;;;;;;;35.77;23.53;;;;;;;0.22;94.43;99192.72;1483732;88;21558;-82
2022/12/12 01:13:05;;;;;;;35.17;21.20;;;;;;;0.22;94.11;99188.81;1480177;87;23262;-84
2022/12/12 01:15:32;;;;;;;34.57;21.73;;;;;;;0.15;94.59;99192.00;1475279;88;22650;-85
2022/12/12 01:17:58;;;;;;;31.10;20.83;;;;;;;0.11;94.62;99188.77;1474584;88;21545;-84
2022/12/12 01:20:27;;;;;;;32.20;20.93;;;;;;;0.13;94.42;99192.58;1482874;87;21603;-83
2022/12/12 01:22:53;;;;;;;29.73;19.60;;;;;;;0.15;94.69;99192.00;1480235;87;21563;-84
2022/12/12 01:25:20;;;;;;;27.93;17.40;;;;;;;0.16;94.53;99194.47;1478887;88;22552;-85
2022/12/12 01:27:46;;;;;;;32.00;19.67;;;;;;;0.19;94.39;99193.42;1482004;88;21739;-80
2022/12/12 01:30:17;;;;;;;28.83;17.97;;;;;;;0.18;93.60;99190.47;1481626;88;21649;-80
2022/12/12 01:32:44;;;;;;;29.75;17.98;;;;;;;0.14;93.54;99185.94;1472518;87;22474;-81
2022/12/12 01:35:11;;;;;;;32.57;19.87;;;;;;;0.09;93.08;99178.14;1478878;88;21375;-81
2022/12/12 01:37:39;;;;;;;34.03;19.27;;;;;;;0.05;93.26;99179.28;1475129;88;22197;-80
2022/12/12 01:40:10;;;;;;;27.93;18.23;;;;;;;0.06;93.50;99171.38;1486049;88;21719;-81
2022/12/12 01:42:36;;;;;;;28.15;18.15;;;;;;;0.04;93.56;99166.75;1476050;88;21727;-81
2022/12/12 01:45:03;;;;;;;30.97;19.07;;;;;;;0.01;93.50;99170.06;1472168;88;21390;-82
2022/12/12 01:47:29;;;;;;;26.70;17.23;;;;;;;0.01;93.37;99173.48;1476807;88;22577;-79
2022/12/12 01:50:00;;;;;;;33.07;18.47;;;;;;;0.02;93.42;99169.11;1480682;88;21603;-80
2022/12/12 01:52:41;;;;;;;46.05;25.90;;;;;;;0.06;93.73;99175.28;1473613;88;21680;-81
2022/12/12 01:55:12;;;;;;;32.58;18.40;;;;;;;0.07;93.42;99169.13;1479603;88;21522;-81
2022/12/12 01:57:42;;;;;;;36.45;21.23;;;;;;;0.07;93.17;99170.91;1477291;88;21611;-81
2022/12/12 02:00:10;;;;;;;33.85;20.20;;;;;;;0.08;93.42;99175.16;1475889;88;21492;-81
2022/12/12 02:02:39;;;;;;;34.37;21.13;;;;;;;0.10;93.30;99174.11;1480411;88;22365;-81
2022/12/12 02:05:19;;;;;;;37.13;22.17;;;;;;;0.12;93.21;99172.71;1479220;87;22597;-81
2022/12/12 02:07:45;;;;;;;33.07;20.50;;;;;;;0.12;93.39;99177.91;1483406;88;22678;-80
2022/12/12 02:10:11;;;;;;;34.30;20.53;;;;;;;0.13;93.57;99178.27;1465752;88;21582;-81
2022/12/12 02:12:38;;;;;;;32.67;19.87;;;;;;;0.14;93.43;99181.21;1472704;88;21559;-82
2022/12/12 02:15:04;;;;;;;33.90;22.20;;;;;;;0.14;93.66;99179.91;1478068;87;22217;-82
2022/12/12 02:18:13;;;;;;;35.97;21.43;;;;;;;0.14;94.31;99185.11;1484461;88;21642;-80
2022/12/12 02:21:03;;;;;;;30.77;18.63;;;;;;;0.13;94.09;99184.29;1472838;88;21668;-81
2022/12/12 02:24:09;;;;;;;33.17;19.43;;;;;;;0.06;93.47;99180.94;1462566;88;21955;-82
2022/12/12 02:26:49;;;;;;;31.40;20.80;;;;;;;0.01;93.18;99179.16;1472749;87;21730;-82
2022/12/12 02:29:39;;;;;;;33.53;19.80;;;;;;;-0.04;94.65;99182.91;1481385;87;21617;-83
2022/12/12 02:32:42;;;;;;;33.07;21.10;;;;;;;-0.09;94.98;99175.07;1471568;88;21582;-83
2022/12/12 02:35:26;;;;;;;33.93;20.20;;;;;;;-0.10;94.82;99172.95;1481105;88;22494;-81
2022/12/12 02:38:01;;;;;;;37.37;20.40;;;;;;;-0.10;95.69;99174.25;1472117;88;21952;-81
2022/12/12 02:40:58;;;;;;;34.30;21.03;;;;;;;-0.09;95.97;99176.38;1473931;88;22809;-81
2022/12/12 02:43:44;;;;;;;33.27;21.50;;;;;;;-0.09;95.48;99173.30;1484258;88;22256;-82
2022/12/12 02:46:22;;;;;;;30.40;19.07;;;;;;;-0.07;95.36;99177.11;1475948;88;21692;-82
2022/12/12 02:48:55;;;;;;;32.83;20.87;;;;;;;-0.08;95.72;99178.05;1480751;88;21669;-81
2022/12/12 02:51:22;;;;;;;35.50;21.20;;;;;;;-0.07;96.12;99175.33;1480737;88;22663;-83
2022/12/12 02:53:48;;;;;;;34.50;20.63;;;;;;;-0.07;96.27;99176.63;1479140;88;21589;-83
2022/12/12 02:56:52;;;;;;;29.47;19.03;;;;;;;-0.09;95.91;99177.20;1486098;87;21596;-81
2022/12/12 02:59:34;;;;;;;33.87;20.83;;;;;;;-0.12;95.64;99173.52;1471930;87;23144;-83
2022/12/12 03:02:15;;;;;;;35.13;21.80;;;;;;;-0.18;96.66;99170.06;1482688;88;21617;-83
2022/12/12 03:08:21;;;;;;;29.93;19.33;;;;;;;-0.37;96.75;99173.64;1443732;88;21607;-82
2022/12/12 03:11:04;;;;;;;30.87;19.37;;;;;;;-0.39;97.12;99170.31;1483049;88;22490;-82
2022/12/12 03:13:51;;;;;;;36.30;21.43;;;;;;;-0.38;97.48;99182.36;1483962;88;21688;-83
2022/12/12 03:16:28;;;;;;;30.27;20.10;;;;;;;-0.38;97.53;99183.19;1480394;88;21485;-82
2022/12/12 03:19:21;;;;;;;32.10;20.63;;;;;;;-0.34;97.96;99186.42;1484022;88;21573;-84
2022/12/12 03:22:05;;;;;;;32.70;19.67;;;;;;;-0.34;97.56;99182.52;1474662;88;21714;-84
2022/12/12 03:24:51;;;;;;;32.10;18.70;;;;;;;-0.31;97.71;99181.00;1481660;88;22659;-83
2022/12/12 03:27:23;;;;;;;31.83;19.83;;;;;;;-0.29;97.87;99183.00;1475071;88;22703;-81
2022/12/12 03:29:54;;;;;;;32.50;19.63;;;;;;;-0.30;97.64;99187.38;1481877;88;21624;-81
2022/12/12 03:32:29;;;;;;;34.13;19.97;;;;;;;-0.29;97.77;99187.75;1474042;87;21500;-80
2022/12/12 03:35:03;;;;;;;32.87;20.40;;;;;;;-0.27;97.69;99183.73;1475894;88;21891;-83
2022/12/12 03:37:36;;;;;;;32.73;21.53;;;;;;;-0.24;97.58;99186.11;1478130;88;21619;-80
2022/12/12 03:40:11;;;;;;;33.17;21.23;;;;;;;-0.24;97.77;99190.01;1483224;88;21775;-81
2022/12/12 03:42:54;;;;;;;33.37;20.27;;;;;;;-0.25;97.95;99192.26;1481640;87;22178;-80
2022/12/12 03:45:31;;;;;;;36.43;20.33;;;;;;;-0.31;98.52;99183.59;1485744;88;21682;-82
2022/12/12 03:48:30;;;;;;;45.23;22.63;;;;;;;-0.37;98.36;99180.14;1482062;88;21784;-83
2022/12/12 03:51:06;;;;;;;36.97;22.13;;;;;;;-0.39;98.49;99183.31;1474806;87;21807;-82
2022/12/12 03:53:38;;;;;;;33.87;20.37;;;;;;;-0.36;98.28;99188.29;1483458;88;21619;-83
2022/12/12 03:56:12;;;;;;;29.70;19.57;;;;;;;-0.35;99.06;99189.94;1480387;88;22513;-81
2022/12/12 03:58:50;;;;;;;30.57;19.20;;;;;;;-0.39;99.41;99188.03;1476864;88;21735;-83
2022/12/12 04:01:20;;;;;;;38.83;22.93;;;;;;;-0.42;99.59;99188.73;1477495;88;21729;-83
2022/12/12 04:04:04;;;;;;;37.15;22.77;;;;;;;-0.42;99.05;99187.42;1477945;88;21594;-80
2022/12/12 04:06:51;;;;;;;38.67;23.00;;;;;;;-0.40;99.62;99188.13;1471239;88;21500;-81
2022/12/12 04:15:38;;;;;;;32.60;19.73;;;;;;;-0.47;99.62;99192.94;1478329;87;21568;-81
2022/12/12 04:18:25;;;;;;;34.43;20.83;;;;;;;-0.44;99.90;99193.20;1479706;88;21815;-80
2022/12/12 04:24:30;;;;;;;31.67;21.23;;;;;;;-0.43;99.71;99200.04;1471368;88;21705;-82
2022/12/12 04:27:17;;;;;;;48.03;27.13;;;;;;;-0.52;99.42;99201.08;1473881;88;21672;-83
2022/12/12 04:30:07;;;;;;;62.30;28.00;;;;;;;-0.59;99.54;99201.59;1476606;88;21805;-83
2022/12/12 04:32:52;;;;;;;49.20;24.73;;;;;;;-0.61;100.00;99206.89;1478233;88;22434;-83
2022/12/12 04:35:35;;;;;;;39.93;23.60;;;;;;;-0.61;100.00;99209.48;1469009;88;21701;-82
2022/12/12 04:38:06;;;;;;;37.43;21.70;;;;;;;-0.59;100.00;99208.92;1472205;87;21543;-80
2022/12/12 04:40:41;;;;;;;45.52;22.93;;;;;;;-0.62;100.00;99206.53;1480691;88;21564;-80
2022/12/12 04:43:20;;;;;;;40.83;23.40;;;;;;;-0.62;100.00;99202.64;1484958;88;21426;-80
2022/12/12 04:45:54;;;;;;;36.43;21.50;;;;;;;-0.64;100.00;99207.10;1480161;88;21831;-77
2022/12/12 04:48:29;;;;;;;33.40;22.03;;;;;;;-0.63;100.00;99204.89;1473104;88;21713;-80
2022/12/12 04:50:57;;;;;;;33.00;21.67;;;;;;;-0.64;100.00;99201.91;1477655;88;21724;-80
2022/12/12 04:53:40;;;;;;;31.03;18.97;;;;;;;-0.60;100.00;99196.88;1484580;88;22630;-78
2022/12/12 04:56:10;;;;;;;36.10;21.20;;;;;;;-0.58;100.00;99192.37;1479445;88;21699;-80
2022/12/12 04:58:38;;;;;;;35.80;21.87;;;;;;;-0.55;100.00;99197.36;1481005;88;21662;-80
2022/12/12 05:01:28;;;;;;;36.60;21.47;;;;;;;-0.55;100.00;99193.46;1479253;88;21495;-80
2022/12/12 05:03:58;;;;;;;36.63;23.10;;;;;;;-0.52;100.00;99202.81;1476679;88;21783;-81
2022/12/12 05:06:30;;;;;;;28.42;19.17;;;;;;;-0.53;100.00;99194.20;1449120;89;21892;-80
2022/12/12 05:08:56;;;;;;;29.80;18.77;;;;;;;-0.48;100.00;99205.11;1473655;88;21419;-80
2022/12/12 05:11:23;;;;;;;34.20;21.17;;;;;;;-0.44;100.00;99204.89;1484262;88;22482;-80
2022/12/12 05:13:49;;;;;;;32.97;20.77;;;;;;;-0.46;100.00;99196.74;1484317;87;21603;-80
2022/12/12 05:16:22;;;;;;;35.43;21.27;;;;;;;-0.48;100.00;99194.71;1476042;88;21485;-81
2022/12/12 05:18:49;;;;;;;32.60;21.30;;;;;;;-0.49;100.00;99193.06;1480503;88;21690;-81
2022/12/12 05:21:15;;;;;;;32.90;19.43;;;;;;;-0.47;100.00;99192.46;1464902;88;21381;-82
2022/12/12 05:23:42;;;;;;;33.40;18.07;;;;;;;-0.44;100.00;99189.30;1485896;88;21609;-80
2022/12/12 05:26:22;;;;;;;34.97;21.30;;;;;;;-0.43;100.00;99189.64;1478060;87;21679;-81
2022/12/12 05:28:49;;;;;;;30.83;19.43;;;;;;;-0.48;100.00;99186.91;1465391;88;21718;-83
2022/12/12 05:31:16;;;;;;;35.30;21.90;;;;;;;-0.52;100.00;99193.28;1476741;88;21538;-82
2022/12/12 05:33:42;;;;;;;30.80;19.53;;;;;;;-0.53;100.00;99189.00;1476791;88;21611;-83
2022/12/12 05:36:09;;;;;;;32.13;20.67;;;;;;;-0.50;100.00;99186.66;1478588;87;21565;-81
2022/12/12 05:38:35;;;;;;;35.00;21.60;;;;;;;-0.51;100.00;99184.53;1475009;88;22659;-83
2022/12/12 05:41:02;;;;;;;33.13;20.40;;;;;;;-0.49;100.00;99189.16;1485804;87;21596;-81
2022/12/12 05:43:28;;;;;;;32.10;21.00;;;;;;;-0.48;100.00;99187.39;1465001;89;21650;-82
2022/12/12 05:45:54;;;;;;;34.07;22.23;;;;;;;-0.47;100.00;99188.56;1484233;88;21642;-82
2022/12/12 05:48:20;;;;;;;34.07;22.33;;;;;;;-0.47;100.00;99191.63;1477190;87;22455;-82
2022/12/12 05:50:46;;;;;;;35.27;23.27;;;;;;;-0.47;100.00;99187.27;1482456;87;21570;-82
2022/12/12 05:53:12;;;;;;;35.10;21.60;;;;;;;-0.42;100.00;99187.42;1484473;87;21491;-83
2022/12/12 05:55:38;;;;;;;39.43;23.50;;;;;;;-0.42;100.00;99183.05;1478127;87;21383;-83
2022/12/12 05:58:04;;;;;;;61.37;26.47;;;;;;;-0.39;100.00;99188.50;1486523;88;22351;-83
2022/12/12 06:00:30;;;;;;;41.67;26.20;;;;;;;-0.39;100.00;99187.20;1472183;87;21501;-83
2022/12/12 06:02:57;;;;;;;42.87;27.60;;;;;;;-0.38;100.00;99188.86;1483216;88;22418;-83
2022/12/12 06:05:23;;;;;;;42.23;26.07;;;;;;;-0.37;100.00;99197.86;1481443;88;21641;-83
2022/12/12 06:07:49;;;;;;;37.73;23.67;;;;;;;-0.34;100.00;99199.42;1459230;88;21575;-85
2022/12/12 06:10:15;;;;;;;42.27;26.20;;;;;;;-0.33;100.00;99198.47;1472774;87;21592;-85
2022/12/12 06:12:41;;;;;;;40.37;25.40;;;;;;;-0.33;100.00;99205.80;1488953;87;21572;-83
2022/12/12 06:15:08;;;;;;;46.30;26.93;;;;;;;-0.35;100.00;99201.64;1482434;87;22795;-85
2022/12/12 06:17:34;;;;;;;48.13;28.20;;;;;;;-0.37;100.00;99206.14;1485513;88;21449;-80
2022/12/12 06:20:01;;;;;;;39.37;23.93;;;;;;;-0.36;100.00;99205.19;1475032;88;21587;-80
2022/12/12 06:22:27;;;;;;;49.67;29.27;;;;;;;-0.34;100.00;99200.72;1477941;87;21544;-81
2022/12/12 06:24:53;;;;;;;42.00;24.87;;;;;;;-0.31;100.00;99201.80;1480592;88;21389;-81
2022/12/12 06:27:19;;;;;;;49.03;27.53;;;;;;;-0.30;100.00;99205.58;1477631;87;21575;-82
2022/12/12 06:29:45;;;;;;;44.37;26.07;;;;;;;-0.30;100.00;99202.98;1480321;88;21425;-81
2022/12/12 06:32:12;;;;;;;46.47;26.77;;;;;;;-0.32;100.00;99210.05;1483398;88;21382;-81
2022/12/12 06:34:38;;;;;;;39.57;24.17;;;;;;;-0.29;100.00;99210.30;1474692;88;22498;-81
2022/12/12 06:37:08;;;;;;;42.60;26.43;;;;;;;-0.25;100.00;99215.66;1477996;88;21585;-80
2022/12/12 06:39:35;;;;;;;33.60;20.10;;;;;;;-0.19;100.00;99211.80;1483867;88;21448;-80
2022/12/12 06:42:01;;;;;;;33.07;22.00;;;;;;;-0.16;100.00;99210.28;1463776;88;21640;-80
2022/12/12 06:44:28;;;;;;;34.40;21.90;;;;;;;-0.19;100.00;99215.22;1481873;88;22549;-80
2022/12/12 06:46:54;;;;;;;30.70;19.27;;;;;;;-0.22;100.00;99218.52;1483175;88;21640;-80
2022/12/12 06:49:20;;;;;;;35.80;22.27;;;;;;;-0.28;100.00;99221.91;1474737;87;21557;-81
2022/12/12 06:51:47;;;;;;;29.43;18.13;;;;;;;-0.28;100.00;99227.58;1470971;87;21592;-93
2022/12/12 06:54:30;;;;;;;29.40;18.60;;;;;;;-0.32;100.00;99228.25;1476573;88;22123;-93
2022/12/12 06:56:56;;;;;;;33.63;20.23;;;;;;;-0.31;100.00;99224.73;1476572;88;22562;-93
2022/12/12 06:59:22;;;;;;;30.33;19.90;;;;;;;-0.29;100.00;99229.80;1455583;88;21638;-93
2022/12/12 07:01:55;;;;;;;31.83;20.80;;;;;;;-0.28;100.00;99230.19;1470525;87;21324;-90
2022/12/12 07:04:21;;;;;;;21.57;15.27;;;;;;;-0.28;100.00;99228.88;1472235;87;21389;-93
2022/12/12 07:06:51;;;;;;;27.33;17.57;;;;;;;-0.32;100.00;99226.12;1471002;87;22520;-93
2022/12/12 07:09:27;;;;;;;19.63;13.97;;;;;;;-0.28;100.00;99229.70;1460103;88;22154;-94
2022/12/12 07:11:53;;;;;;;20.17;13.47;;;;;;;-0.30;100.00;99228.97;1479690;88;22334;-92
2022/12/12 07:14:19;;;;;;;24.80;14.47;;;;;;;-0.28;100.00;99230.19;1461987;88;21524;-93
2022/12/12 07:16:45;;;;;;;20.97;14.13;;;;;;;-0.25;100.00;99231.27;1483780;88;21406;-92
2022/12/12 07:19:11;;;;;;;22.50;15.07;;;;;;;-0.20;100.00;99231.78;1485887;88;21352;-93
2022/12/12 07:21:37;;;;;;;20.23;13.70;;;;;;;-0.17;100.00;99232.86;1475699;88;22167;-92
2022/12/12 07:24:04;;;;;;;19.80;15.07;;;;;;;-0.16;100.00;99241.02;1482692;87;22284;-92
2022/12/12 07:26:31;;;;;;;19.93;14.20;;;;;;;-0.22;100.00;99240.15;1481546;88;21642;-93
2022/12/12 07:28:57;;;;;;;20.67;12.60;;;;;;;-0.28;100.00;99252.28;1468241;88;21442;-93
2022/12/12 07:31:27;;;;;;;18.80;12.83;;;;;;;-0.36;100.00;99243.71;1473730;87;21677;-87
2022/12/12 07:33:53;;;;;;;18.07;12.03;;;;;;;-0.40;100.00;99250.52;1474329;88;21657;-92
2022/12/12 07:36:21;;;;;;;19.63;12.97;;;;;;;-0.40;100.00;99255.72;1473306;88;21375;-92
2022/12/12 07:38:47;;;;;;;24.33;15.23;;;;;;;-0.47;100.00;99256.14;1459448;88;21675;-93
2022/12/12 07:41:20;;;;;;;21.20;13.90;;;;;;;-0.50;100.00;99255.06;1473551;88;22388;-94
2022/12/12 07:44:11;;;;;;;20.80;14.57;;;;;;;-0.54;100.00;99256.70;1468462;88;21948;-90
2022/12/12 07:46:37;;;;;;;23.55;14.33;;;;;;;-0.55;100.00;99255.84;1473547;88;23359;-93
2022/12/12 07:49:03;;;;;;;22.67;14.93;;;;;;;-0.51;100.00;99255.19;1483468;87;21346;-91
2022/12/12 07:51:30;;;;;;;23.20;13.10;;;;;;;-0.48;100.00;99260.17;1479242;87;21693;-91
2022/12/12 07:53:56;;;;;;;26.70;16.40;;;;;;;-0.52;100.00;99265.20;1489991;87;21346;-84
2022/12/12 07:56:22;;;;;;;25.00;15.93;;;;;;;-0.54;100.00;99261.42;1465390;87;22656;-91
2022/12/12 07:58:50;;;;;;;24.07;13.87;;;;;;;-0.55;100.00;99270.61;1463201;89;21636;-91
2022/12/12 08:01:24;;;;;;;23.63;13.43;;;;;;;-0.58;100.00;99278.61;1450188;89;21333;-92
2022/12/12 08:03:51;;;;;;;20.37;11.77;;;;;;;-0.63;100.00;99282.84;1445972;89;21645;-89
2022/12/12 08:06:19;;;;;;;18.00;11.40;;;;;;;-0.73;98.89;99283.09;1448869;89;21576;-92
2022/12/12 08:08:48;;;;;;;18.03;10.33;;;;;;;-0.79;97.61;99267.92;1436109;89;21467;-92
2022/12/12 08:11:18;;;;;;;19.10;12.57;;;;;;;-0.85;97.52;99277.44;1455607;89;21682;-93
2022/12/12 08:13:44;;;;;;;23.90;14.37;;;;;;;-0.86;96.96;99283.10;1452577;89;21481;-85
2022/12/12 08:16:21;;;;;;;21.90;14.97;;;;;;;-0.81;96.97;99287.97;1444225;90;21573;-88
2022/12/12 08:18:48;;;;;;;18.00;12.37;;;;;;;-0.75;97.73;99291.45;1440029;90;22315;-93
2022/12/12 08:21:16;;;;;;;20.37;13.23;;;;;;;-0.71;96.90;99290.33;1426457;91;21377;-90
2022/12/12 08:23:42;;;;;;;22.60;13.70;;;;;;;-0.70;96.83;99282.41;1449166;90;21565;-84
2022/12/12 08:26:13;;;;;;;26.83;16.87;;;;;;;-0.68;96.73;99294.02;1456443;90;21660;-82
2022/12/12 08:28:40;;;;;;;23.95;15.70;;;;;;;-0.67;96.98;99293.06;1448114;90;22766;-82
2022/12/12 08:31:07;;;;;;;24.23;16.00;;;;;;;-0.66;96.39;99296.05;1450254;90;22278;-84
2022/12/12 08:33:33;;;;;;;20.17;12.33;;;;;;;-0.68;95.46;99291.41;1426594;91;21603;-89
2022/12/12 08:36:00;;;;;;;22.07;15.40;;;;;;;-0.68;95.50;99296.61;1441554;90;22619;-88
2022/12/12 08:38:26;;;;;;;19.77;13.27;;;;;;;-0.67;95.78;99303.46;1439298;90;21510;-86
2022/12/12 08:40:52;;;;;;;21.00;13.90;;;;;;;-0.77;95.34;99310.23;1440204;90;21660;-86
2022/12/12 08:43:19;;;;;;;18.20;11.63;;;;;;;-0.75;95.48;99314.84;1440065;90;21556;-85
2022/12/12 08:45:46;;;;;;;20.50;13.87;;;;;;;-0.80;94.97;99316.94;1441738;90;21761;-82
2022/12/12 08:48:13;;;;;;;23.00;14.67;;;;;;;-0.87;95.36;99322.98;1426226;90;22393;-88
2022/12/12 08:50:40;;;;;;;23.50;16.10;;;;;;;-0.84;96.45;99312.86;1441881;90;22788;-85
2022/12/12 08:53:06;;;;;;;19.23;12.87;;;;;;;-0.76;98.51;99316.61;1443270;90;22708;-86
2022/12/12 08:55:32;;;;;;;23.97;14.07;;;;;;;-0.57;100.00;99312.78;1444789;90;21654;-85
2022/12/12 08:57:58;;;;;;;22.37;13.77;;;;;;;-0.40;100.00;99309.01;1438501;90;22449;-85
2022/12/12 09:00:25;;;;;;;21.37;14.40;;;;;;;-0.33;96.98;99315.47;1431094;91;21738;-88
2022/12/12 09:02:51;;;;;;;22.60;12.57;;;;;;;-0.34;96.55;99317.24;1438123;90;23103;-86
2022/12/12 09:05:17;;;;;;;19.77;13.37;;;;;;;-0.40;95.36;99307.71;1439531;90;21677;-86
2022/12/12 09:07:43;;;;;;;19.80;11.30;;;;;;;-0.44;95.07;99311.47;1451609;90;21383;-86
2022/12/12 09:10:09;;;;;;;21.33;13.50;;;;;;;-0.51;94.89;99306.70;1440279;90;22479;-87
2022/12/12 09:12:35;;;;;;;22.80;14.67;;;;;;;-0.43;96.19;99304.88;1430110;91;21561;-87
2022/12/12 09:15:02;;;;;;;21.23;14.03;;;;;;;-0.41;95.50;99313.86;1453489;90;21606;-86
2022/12/12 09:17:28;;;;;;;21.50;14.47;;;;;;;-0.36;95.29;99311.78;1453215;90;22733;-83
2022/12/12 09:19:54;;;;;;;22.77;12.93;;;;;;;-0.37;95.14;99315.33;1441232;90;21610;-89
2022/12/12 09:22:21;;;;;;;19.20;12.37;;;;;;;-0.39;95.50;99323.69;1435969;90;22568;-88
2022/12/12 09:24:47;;;;;;;25.60;15.33;;;;;;;-0.41;94.94;99317.28;1439997;90;21620;-87
2022/12/12 09:27:13;;;;;;;23.07;13.57;;;;;;;-0.36;95.69;99316.98;1439582;90;21588;-86
2022/12/12 09:29:39;;;;;;;21.13;14.00;;;;;;;-0.42;94.73;99323.43;1437325;90;22337;-85
2022/12/12 09:32:05;;;;;;;22.33;14.00;;;;;;;-0.39;95.03;99322.39;1441307;90;21674;-87
2022/12/12 09:34:33;;;;;;;19.80;12.87;;;;;;;-0.42;94.12;99314.80;1441187;90;22329;-86
2022/12/12 09:37:00;;;;;;;18.60;12.73;;;;;;;-0.44;93.93;99314.07;1424397;91;21524;-87
2022/12/12 09:39:26;;;;;;;21.10;12.67;;;;;;;-0.47;93.61;99314.63;1438192;90;22537;-88
2022/12/12 09:41:53;;;;;;;18.67;11.53;;;;;;;-0.48;93.62;99320.78;1441003;90;22242;-87
2022/12/12 09:44:21;;;;;;;16.97;10.90;;;;;;;-0.56;93.71;99320.47;1443569;90;21733;-85
2022/12/12 09:46:56;;;;;;;21.83;12.37;;;;;;;-0.56;93.80;99319.16;1425116;91;21647;-86
2022/12/12 09:49:43;;;;;;;21.93;13.97;;;;;;;-0.51;93.25;99315.79;1448020;90;21743;-86
2022/12/12 09:52:17;;;;;;;25.27;14.90;;;;;;;-0.52;93.64;99311.54;1453086;90;21711;-86
2022/12/12 09:54:43;;;;;;;20.70;13.50;;;;;;;-0.47;93.56;99313.33;1458589;89;21763;-88
2022/12/12 09:57:21;;;;;;;21.17;13.63;;;;;;;-0.48;92.18;99312.98;1451390;90;22634;-87
2022/12/12 10:00:04;;;;;;;20.73;12.80;;;;;;;-0.52;92.65;99318.04;1454727;89;21764;-86
2022/12/12 10:02:54;;;;;;;22.73;15.07;;;;;;;-0.51;92.46;99312.37;1446066;90;22763;-89
2022/12/12 10:05:47;;;;;;;18.83;11.33;;;;;;;-0.49;92.81;99319.12;1456477;90;22538;-87
2022/12/12 10:08:44;;;;;;;22.10;11.87;;;;;;;-0.49;91.10;99324.33;1452596;90;22624;-89
2022/12/12 10:14:02;;;;;;;24.87;13.90;;;;;;;-0.55;90.67;99328.61;1442972;90;21561;-85
2022/12/12 10:16:32;;;;;;;20.90;12.35;;;;;;;-0.51;91.72;99320.16;1441777;90;21563;-89
2022/12/12 10:19:07;;;;;;;26.80;14.30;;;;;;;-0.41;90.92;99330.75;1425252;91;21880;-89
2022/12/12 10:21:39;;;;;;;19.57;12.57;;;;;;;-0.33;90.56;99331.06;1450468;90;22575;-86
2022/12/12 10:24:24;;;;;;;21.55;13.55;;;;;;;-0.27;88.42;99325.44;1463212;89;22558;-89
2022/12/12 10:26:51;;;;;;;31.83;19.00;;;;;;;-0.26;87.62;99330.99;1444182;90;22301;-87
2022/12/12 10:29:21;;;;;;;31.30;20.70;;;;;;;-0.11;89.07;99332.55;1428434;91;21474;-89
2022/12/12 10:32:07;;;;;;;27.20;17.20;;;;;;;-0.11;88.24;99335.16;1453965;90;22608;-87
2022/12/12 10:35:12;;;;;;;22.73;14.73;;;;;;;-0.09;88.51;99346.27;1450416;90;21743;-88
2022/12/12 10:37:59;;;;;;;28.07;16.20;;;;;;;-0.14;86.73;99342.34;1446032;90;21819;-88
2022/12/12 10:40:54;;;;;;;20.60;12.93;;;;;;;-0.23;86.67;99338.61;1436637;90;23736;-87
2022/12/12 10:43:24;;;;;;;24.00;15.30;;;;;;;-0.27;86.76;99344.94;1438148;90;21767;-86
2022/12/12 10:46:20;;;;;;;22.27;15.30;;;;;;;-0.30;86.03;99343.86;1443350;90;21511;-88
2022/12/12 10:48:48;;;;;;;18.70;13.97;;;;;;;-0.40;84.81;99348.01;1445661;90;21457;-88
2022/12/12 10:51:18;;;;;;;20.60;12.83;;;;;;;-0.43;83.42;99346.91;1432641;90;22131;-87
2022/12/12 10:53:44;;;;;;;20.90;13.08;;;;;;;-0.50;83.92;99347.34;1455435;90;21573;-87
2022/12/12 10:56:21;;;;;;;18.23;11.40;;;;;;;-0.47;84.73;99340.63;1458077;90;21464;-89
2022/12/12 10:59:00;;;;;;;24.30;13.83;;;;;;;-0.48;83.84;99348.55;1443862;90;21654;-87
2022/12/12 11:01:37;;;;;;;19.00;11.97;;;;;;;-0.43;83.67;99345.17;1441346;90;21480;-86
2022/12/12 11:04:04;;;;;;;20.40;12.03;;;;;;;-0.47;83.01;99351.50;1418863;91;21654;-89
2022/12/12 11:06:41;;;;;;;21.50;14.00;;;;;;;-0.48;81.88;99351.97;1449775;90;21652;-88
2022/12/12 11:09:29;;;;;;;28.20;15.87;;;;;;;-0.50;82.16;99355.13;1453941;90;22566;-89
2022/12/12 11:12:10;;;;;;;20.00;13.73;;;;;;;-0.49;83.14;99363.76;1446357;90;21652;-88
2022/12/12 11:14:47;;;;;;;22.48;13.93;;;;;;;-0.45;83.39;99366.53;1447679;90;21639;-88
2022/12/12 11:17:26;;;;;;;21.63;14.23;;;;;;;-0.47;83.43;99362.72;1458213;89;21464;-88
2022/12/12 11:20:00;;;;;;;25.17;14.87;;;;;;;-0.44;84.33;99372.56;1442284;90;21607;-91
2022/12/12 11:22:28;;;;;;;28.10;16.00;;;;;;;-0.53;83.28;99376.14;1445612;90;21479;-82
2022/12/12 11:24:55;;;;;;;25.30;14.90;;;;;;;-0.52;85.12;99374.36;1424445;91;21714;-89
2022/12/12 11:27:27;;;;;;;27.40;16.53;;;;;;;-0.54;85.19;99378.38;1451298;90;22707;-90
2022/12/12 11:30:00;;;;;;;25.97;15.40;;;;;;;-0.54;85.46;99378.86;1451331;90;22683;-89
2022/12/12 11:32:32;;;;;;;20.60;13.57;;;;;;;-0.55;84.97;99371.97;1454958;90;21864;-87
2022/12/12 11:35:04;;;;;;;17.43;10.77;;;;;;;-0.59;84.32;99377.84;1452373;89;21866;-87
2022/12/12 11:37:40;;;;;;;26.50;14.43;;;;;;;-0.71;82.30;99375.60;1456983;89;22547;-89
2022/12/12 11:40:12;;;;;;;22.00;13.53;;;;;;;-0.77;82.51;99375.19;1450044;89;21589;-89
2022/12/12 11:42:38;;;;;;;;;;;;;;;-0.79;83.05;99368.78;1452820;89;21891;-88
2022/12/12 11:45:16;;;;;;;20.33;12.53;;;;;;;-0.80;83.18;99372.80;1454506;90;20249;-88
2022/12/12 11:47:45;;;;;;;19.37;13.30;;;;;;;-0.85;82.82;99376.98;1436763;90;22450;-86
2022/12/12 11:50:25;;;;;;;23.00;13.63;;;;;;;-0.81;83.86;99382.80;1418190;91;21651;-89
2022/12/12 11:53:00;;;;;;;21.23;13.17;;;;;;;-0.84;84.00;99386.90;1416616;92;21781;-89
2022/12/12 11:56:10;;;;;;;26.07;13.60;;;;;;;-0.92;82.97;99388.25;1420055;92;21671;-88